sensor_id;sensor_type;location;lat;lon;timestamp;P1;durP1;ratioP1;P2;durP2;ratioP2
12171;SDS011;6149;52.418;13.668;2023-03-01T00:01:39;48.20;;;30.20;;
12171;SDS011;6149;52.418;13.668;2023-03-01T00:04:07;47.50;;;32.00;;
12171;SDS011;6149;52.418;13.668;2023-03-01T00:06:34;44.90;;;30.40;;
12171;SDS011;6149;52.418;13.668;2023-03-01T00:09:02;47.33;;;29.47;;
12171;SDS011;6149;52.418;13.668;2023-03-01T00:11:29;44.73;;;27.67;;
12171;SDS011;6149;52.418;13.668;2023-03-01T00:14:01;39.93;;;25.93;;
12171;SDS011;6149;52.418;13.668;2023-03-01T00:16:32;42.23;;;27.57;;
12171;SDS011;6149;52.418;13.668;2023-03-01T00:19:01;39.17;;;25.20;;
12171;SDS011;6149;52.418;13.668;2023-03-01T00:21:30;44.07;;;26.67;;
12171;SDS011;6149;52.418;13.668;2023-03-01T00:23:56;43.30;;;25.60;;
12171;SDS011;6149;52.418;13.668;2023-03-01T00:26:24;39.03;;;26.00;;
12171;SDS011;6149;52.418;13.668;2023-03-01T00:28:52;38.27;;;24.93;;
12171;SDS011;6149;52.418;13.668;2023-03-01T00:31:21;36.50;;;26.00;;
12171;SDS011;6149;52.418;13.668;2023-03-01T00:33:52;41.87;;;26.57;;
12171;SDS011;6149;52.418;13.668;2023-03-01T00:36:22;38.53;;;25.17;;
12171;SDS011;6149;52.418;13.668;2023-03-01T00:38:52;38.83;;;25.17;;
12171;SDS011;6149;52.418;13.668;2023-03-01T00:41:20;44.37;;;26.97;;
12171;SDS011;6149;52.418;13.668;2023-03-01T00:43:48;40.10;;;26.87;;
12171;SDS011;6149;52.418;13.668;2023-03-01T00:46:17;37.37;;;25.53;;
12171;SDS011;6149;52.418;13.668;2023-03-01T00:48:46;42.47;;;26.60;;
12171;SDS011;6149;52.418;13.668;2023-03-01T00:51:13;36.80;;;25.20;;
12171;SDS011;6149;52.418;13.668;2023-03-01T00:53:42;41.33;;;25.60;;
12171;SDS011;6149;52.418;13.668;2023-03-01T00:56:11;37.97;;;25.77;;
12171;SDS011;6149;52.418;13.668;2023-03-01T00:58:40;35.93;;;24.57;;
12171;SDS011;6149;52.418;13.668;2023-03-01T01:01:07;36.17;;;24.63;;
12171;SDS011;6149;52.418;13.668;2023-03-01T01:03:41;33.67;;;24.37;;
12171;SDS011;6149;52.418;13.668;2023-03-01T01:06:12;36.67;;;24.03;;
12171;SDS011;6149;52.418;13.668;2023-03-01T01:08:41;39.47;;;24.97;;
12171;SDS011;6149;52.418;13.668;2023-03-01T01:11:08;38.07;;;24.17;;
12171;SDS011;6149;52.418;13.668;2023-03-01T01:13:37;37.80;;;23.83;;
12171;SDS011;6149;52.418;13.668;2023-03-01T01:16:04;33.83;;;23.50;;
12171;SDS011;6149;52.418;13.668;2023-03-01T01:18:32;38.80;;;24.53;;
12171;SDS011;6149;52.418;13.668;2023-03-01T01:21:02;39.00;;;25.50;;
12171;SDS011;6149;52.418;13.668;2023-03-01T01:23:31;38.83;;;25.57;;
12171;SDS011;6149;52.418;13.668;2023-03-01T01:26:02;37.47;;;24.40;;
12171;SDS011;6149;52.418;13.668;2023-03-01T01:28:32;35.83;;;24.73;;
12171;SDS011;6149;52.418;13.668;2023-03-01T01:30:59;38.57;;;24.27;;
12171;SDS011;6149;52.418;13.668;2023-03-01T01:33:26;39.77;;;26.10;;
12171;SDS011;6149;52.418;13.668;2023-03-01T01:35:53;36.47;;;25.67;;
12171;SDS011;6149;52.418;13.668;2023-03-01T01:38:20;36.30;;;24.10;;
12171;SDS011;6149;52.418;13.668;2023-03-01T01:40:47;32.97;;;22.17;;
12171;SDS011;6149;52.418;13.668;2023-03-01T01:43:18;36.43;;;24.87;;
12171;SDS011;6149;52.418;13.668;2023-03-01T01:45:50;34.77;;;23.93;;
12171;SDS011;6149;52.418;13.668;2023-03-01T01:48:18;36.40;;;24.77;;
12171;SDS011;6149;52.418;13.668;2023-03-01T01:50:50;35.07;;;23.83;;
12171;SDS011;6149;52.418;13.668;2023-03-01T01:53:22;35.37;;;24.27;;
12171;SDS011;6149;52.418;13.668;2023-03-01T01:55:51;35.23;;;23.37;;
12171;SDS011;6149;52.418;13.668;2023-03-01T01:58:22;36.43;;;24.23;;
12171;SDS011;6149;52.418;13.668;2023-03-01T02:00:53;36.27;;;22.73;;
12171;SDS011;6149;52.418;13.668;2023-03-01T02:03:22;34.23;;;21.70;;
12171;SDS011;6149;52.418;13.668;2023-03-01T02:05:55;33.97;;;20.70;;
12171;SDS011;6149;52.418;13.668;2023-03-01T02:08:27;32.13;;;22.87;;
12171;SDS011;6149;52.418;13.668;2023-03-01T02:10:57;31.33;;;21.40;;
12171;SDS011;6149;52.418;13.668;2023-03-01T02:13:25;34.47;;;21.93;;
12171;SDS011;6149;52.418;13.668;2023-03-01T02:15:54;33.13;;;21.00;;
12171;SDS011;6149;52.418;13.668;2023-03-01T02:18:21;29.23;;;20.27;;
12171;SDS011;6149;52.418;13.668;2023-03-01T02:20:58;29.63;;;19.77;;
12171;SDS011;6149;52.418;13.668;2023-03-01T02:23:36;29.17;;;19.53;;
12171;SDS011;6149;52.418;13.668;2023-03-01T02:26:05;32.07;;;20.97;;
12171;SDS011;6149;52.418;13.668;2023-03-01T02:28:40;32.20;;;20.27;;
12171;SDS011;6149;52.418;13.668;2023-03-01T02:31:10;31.50;;;20.07;;
12171;SDS011;6149;52.418;13.668;2023-03-01T02:34:00;29.40;;;19.23;;
12171;SDS011;6149;52.418;13.668;2023-03-01T02:36:30;35.50;;;21.57;;
12171;SDS011;6149;52.418;13.668;2023-03-01T02:39:03;29.83;;;19.20;;
12171;SDS011;6149;52.418;13.668;2023-03-01T02:41:34;28.53;;;20.40;;
12171;SDS011;6149;52.418;13.668;2023-03-01T02:44:04;33.27;;;22.33;;
12171;SDS011;6149;52.418;13.668;2023-03-01T02:46:31;37.13;;;23.10;;
12171;SDS011;6149;52.418;13.668;2023-03-01T02:48:58;31.93;;;21.03;;
12171;SDS011;6149;52.418;13.668;2023-03-01T02:51:28;34.80;;;21.87;;
12171;SDS011;6149;52.418;13.668;2023-03-01T02:54:15;38.67;;;22.80;;
12171;SDS011;6149;52.418;13.668;2023-03-01T02:56:50;32.17;;;21.63;;
12171;SDS011;6149;52.418;13.668;2023-03-01T02:59:19;35.67;;;22.57;;
12171;SDS011;6149;52.418;13.668;2023-03-01T03:01:49;31.33;;;21.63;;
12171;SDS011;6149;52.418;13.668;2023-03-01T03:04:16;32.97;;;22.50;;
12171;SDS011;6149;52.418;13.668;2023-03-01T03:06:46;32.83;;;22.80;;
12171;SDS011;6149;52.418;13.668;2023-03-01T03:09:15;29.83;;;20.97;;
12171;SDS011;6149;52.418;13.668;2023-03-01T03:11:44;32.43;;;22.03;;
12171;SDS011;6149;52.418;13.668;2023-03-01T03:14:11;33.07;;;23.07;;
12171;SDS011;6149;52.418;13.668;2023-03-01T03:16:42;31.70;;;21.53;;
12171;SDS011;6149;52.418;13.668;2023-03-01T03:19:11;35.47;;;21.87;;
12171;SDS011;6149;52.418;13.668;2023-03-01T03:21:40;34.57;;;20.50;;
12171;SDS011;6149;52.418;13.668;2023-03-01T03:24:06;31.73;;;20.70;;
12171;SDS011;6149;52.418;13.668;2023-03-01T03:26:33;30.23;;;21.73;;
12171;SDS011;6149;52.418;13.668;2023-03-01T03:29:00;35.37;;;21.77;;
12171;SDS011;6149;52.418;13.668;2023-03-01T03:31:27;35.50;;;21.00;;
12171;SDS011;6149;52.418;13.668;2023-03-01T03:33:55;33.47;;;20.57;;
12171;SDS011;6149;52.418;13.668;2023-03-01T03:36:22;31.00;;;19.73;;
12171;SDS011;6149;52.418;13.668;2023-03-01T03:38:50;29.43;;;20.47;;
12171;SDS011;6149;52.418;13.668;2023-03-01T03:41:17;33.87;;;20.17;;
12171;SDS011;6149;52.418;13.668;2023-03-01T03:43:44;27.00;;;20.03;;
12171;SDS011;6149;52.418;13.668;2023-03-01T03:46:11;30.00;;;20.00;;
12171;SDS011;6149;52.418;13.668;2023-03-01T03:48:39;29.43;;;18.97;;
12171;SDS011;6149;52.418;13.668;2023-03-01T03:51:11;30.83;;;19.87;;
12171;SDS011;6149;52.418;13.668;2023-03-01T03:53:39;25.70;;;18.80;;
12171;SDS011;6149;52.418;13.668;2023-03-01T03:56:07;30.73;;;19.57;;
12171;SDS011;6149;52.418;13.668;2023-03-01T03:58:34;29.27;;;19.67;;
12171;SDS011;6149;52.418;13.668;2023-03-01T04:01:00;29.63;;;18.70;;
12171;SDS011;6149;52.418;13.668;2023-03-01T04:03:29;28.37;;;19.47;;
12171;SDS011;6149;52.418;13.668;2023-03-01T04:05:58;27.83;;;18.40;;
12171;SDS011;6149;52.418;13.668;2023-03-01T04:08:27;27.57;;;18.43;;
12171;SDS011;6149;52.418;13.668;2023-03-01T04:10:57;26.20;;;18.17;;
12171;SDS011;6149;52.418;13.668;2023-03-01T04:13:46;25.83;;;17.67;;
12171;SDS011;6149;52.418;13.668;2023-03-01T04:16:12;29.20;;;19.03;;
12171;SDS011;6149;52.418;13.668;2023-03-01T04:18:39;25.50;;;17.60;;
12171;SDS011;6149;52.418;13.668;2023-03-01T04:21:05;25.57;;;17.43;;
12171;SDS011;6149;52.418;13.668;2023-03-01T04:23:33;28.10;;;18.23;;
12171;SDS011;6149;52.418;13.668;2023-03-01T04:26:00;22.53;;;16.97;;
12171;SDS011;6149;52.418;13.668;2023-03-01T04:28:28;23.67;;;16.33;;
12171;SDS011;6149;52.418;13.668;2023-03-01T04:31:01;24.77;;;17.03;;
12171;SDS011;6149;52.418;13.668;2023-03-01T04:33:38;22.83;;;16.63;;
12171;SDS011;6149;52.418;13.668;2023-03-01T04:36:06;25.30;;;16.63;;
12171;SDS011;6149;52.418;13.668;2023-03-01T04:38:36;26.87;;;16.50;;
12171;SDS011;6149;52.418;13.668;2023-03-01T04:41:04;26.83;;;17.50;;
12171;SDS011;6149;52.418;13.668;2023-03-01T04:43:31;26.17;;;17.33;;
12171;SDS011;6149;52.418;13.668;2023-03-01T04:46:02;25.77;;;16.30;;
12171;SDS011;6149;52.418;13.668;2023-03-01T04:48:31;24.60;;;16.17;;
12171;SDS011;6149;52.418;13.668;2023-03-01T04:50:58;26.27;;;16.77;;
12171;SDS011;6149;52.418;13.668;2023-03-01T04:53:25;24.17;;;15.77;;
12171;SDS011;6149;52.418;13.668;2023-03-01T04:55:54;25.20;;;15.53;;
12171;SDS011;6149;52.418;13.668;2023-03-01T04:58:22;24.77;;;15.97;;
12171;SDS011;6149;52.418;13.668;2023-03-01T05:00:53;23.83;;;16.17;;
12171;SDS011;6149;52.418;13.668;2023-03-01T05:03:20;30.30;;;17.13;;
12171;SDS011;6149;52.418;13.668;2023-03-01T05:05:48;25.80;;;17.53;;
12171;SDS011;6149;52.418;13.668;2023-03-01T05:08:18;25.20;;;16.37;;
12171;SDS011;6149;52.418;13.668;2023-03-01T05:10:46;25.50;;;17.07;;
12171;SDS011;6149;52.418;13.668;2023-03-01T05:13:17;24.93;;;15.90;;
12171;SDS011;6149;52.418;13.668;2023-03-01T05:15:46;25.23;;;16.47;;
12171;SDS011;6149;52.418;13.668;2023-03-01T05:18:15;25.10;;;15.50;;
12171;SDS011;6149;52.418;13.668;2023-03-01T05:20:41;24.77;;;16.70;;
12171;SDS011;6149;52.418;13.668;2023-03-01T05:23:09;23.33;;;15.87;;
12171;SDS011;6149;52.418;13.668;2023-03-01T05:25:36;27.50;;;15.93;;
12171;SDS011;6149;52.418;13.668;2023-03-01T05:28:05;24.00;;;16.43;;
12171;SDS011;6149;52.418;13.668;2023-03-01T05:30:35;24.80;;;16.37;;
12171;SDS011;6149;52.418;13.668;2023-03-01T05:33:04;25.53;;;15.87;;
12171;SDS011;6149;52.418;13.668;2023-03-01T05:35:35;25.10;;;16.17;;
12171;SDS011;6149;52.418;13.668;2023-03-01T05:38:02;21.73;;;15.80;;
12171;SDS011;6149;52.418;13.668;2023-03-01T05:40:29;24.00;;;15.80;;
12171;SDS011;6149;52.418;13.668;2023-03-01T05:42:56;28.57;;;17.00;;
12171;SDS011;6149;52.418;13.668;2023-03-01T05:45:24;24.10;;;15.60;;
12171;SDS011;6149;52.418;13.668;2023-03-01T05:47:54;23.60;;;15.90;;
12171;SDS011;6149;52.418;13.668;2023-03-01T05:50:21;26.27;;;16.00;;
12171;SDS011;6149;52.418;13.668;2023-03-01T05:52:51;26.57;;;17.07;;
12171;SDS011;6149;52.418;13.668;2023-03-01T05:55:23;23.87;;;15.53;;
12171;SDS011;6149;52.418;13.668;2023-03-01T05:57:50;22.60;;;14.43;;
12171;SDS011;6149;52.418;13.668;2023-03-01T06:00:18;29.43;;;15.93;;
12171;SDS011;6149;52.418;13.668;2023-03-01T06:02:48;24.13;;;15.83;;
12171;SDS011;6149;52.418;13.668;2023-03-01T06:05:16;27.07;;;15.50;;
12171;SDS011;6149;52.418;13.668;2023-03-01T06:07:43;24.17;;;16.17;;
12171;SDS011;6149;52.418;13.668;2023-03-01T06:10:10;26.03;;;16.00;;
12171;SDS011;6149;52.418;13.668;2023-03-01T06:12:39;26.37;;;16.33;;
12171;SDS011;6149;52.418;13.668;2023-03-01T06:15:09;23.67;;;15.83;;
12171;SDS011;6149;52.418;13.668;2023-03-01T06:17:38;24.40;;;16.73;;
12171;SDS011;6149;52.418;13.668;2023-03-01T06:20:08;23.50;;;15.90;;
12171;SDS011;6149;52.418;13.668;2023-03-01T06:22:38;24.23;;;15.57;;
12171;SDS011;6149;52.418;13.668;2023-03-01T06:25:05;25.53;;;15.87;;
12171;SDS011;6149;52.418;13.668;2023-03-01T06:27:33;23.27;;;15.50;;
12171;SDS011;6149;52.418;13.668;2023-03-01T06:30:02;27.83;;;16.87;;
12171;SDS011;6149;52.418;13.668;2023-03-01T06:32:30;23.93;;;15.93;;
12171;SDS011;6149;52.418;13.668;2023-03-01T06:34:56;25.73;;;17.07;;
12171;SDS011;6149;52.418;13.668;2023-03-01T06:37:24;26.47;;;17.60;;
12171;SDS011;6149;52.418;13.668;2023-03-01T06:39:52;22.93;;;16.20;;
12171;SDS011;6149;52.418;13.668;2023-03-01T06:42:18;29.93;;;20.20;;
12171;SDS011;6149;52.418;13.668;2023-03-01T06:44:45;29.70;;;18.27;;
12171;SDS011;6149;52.418;13.668;2023-03-01T06:47:12;29.20;;;18.73;;
12171;SDS011;6149;52.418;13.668;2023-03-01T06:49:39;27.87;;;17.97;;
12171;SDS011;6149;52.418;13.668;2023-03-01T06:52:05;24.83;;;17.47;;
12171;SDS011;6149;52.418;13.668;2023-03-01T06:54:32;26.90;;;16.83;;
12171;SDS011;6149;52.418;13.668;2023-03-01T06:57:00;22.40;;;16.37;;
12171;SDS011;6149;52.418;13.668;2023-03-01T06:59:26;25.73;;;17.73;;
12171;SDS011;6149;52.418;13.668;2023-03-01T07:01:53;25.30;;;17.13;;
12171;SDS011;6149;52.418;13.668;2023-03-01T07:04:19;24.03;;;16.70;;
12171;SDS011;6149;52.418;13.668;2023-03-01T07:06:46;25.00;;;16.97;;
12171;SDS011;6149;52.418;13.668;2023-03-01T07:09:19;27.63;;;17.20;;
12171;SDS011;6149;52.418;13.668;2023-03-01T07:11:47;29.73;;;19.33;;
12171;SDS011;6149;52.418;13.668;2023-03-01T07:14:15;25.83;;;17.17;;
12171;SDS011;6149;52.418;13.668;2023-03-01T07:16:42;27.37;;;17.43;;
12171;SDS011;6149;52.418;13.668;2023-03-01T07:19:08;26.77;;;17.13;;
12171;SDS011;6149;52.418;13.668;2023-03-01T07:21:35;26.27;;;18.23;;
12171;SDS011;6149;52.418;13.668;2023-03-01T07:24:04;28.17;;;17.87;;
12171;SDS011;6149;52.418;13.668;2023-03-01T07:26:32;32.30;;;20.27;;
12171;SDS011;6149;52.418;13.668;2023-03-01T07:28:58;26.77;;;18.60;;
12171;SDS011;6149;52.418;13.668;2023-03-01T07:31:26;34.57;;;20.87;;
12171;SDS011;6149;52.418;13.668;2023-03-01T07:33:53;36.43;;;21.87;;
12171;SDS011;6149;52.418;13.668;2023-03-01T07:36:20;40.53;;;24.37;;
12171;SDS011;6149;52.418;13.668;2023-03-01T07:38:48;41.93;;;24.93;;
12171;SDS011;6149;52.418;13.668;2023-03-01T07:41:14;37.57;;;24.07;;
12171;SDS011;6149;52.418;13.668;2023-03-01T07:43:41;40.70;;;25.27;;
12171;SDS011;6149;52.418;13.668;2023-03-01T07:46:08;36.93;;;21.83;;
12171;SDS011;6149;52.418;13.668;2023-03-01T07:48:36;35.70;;;22.80;;
12171;SDS011;6149;52.418;13.668;2023-03-01T07:51:03;37.70;;;25.23;;
12171;SDS011;6149;52.418;13.668;2023-03-01T07:53:32;34.53;;;23.53;;
12171;SDS011;6149;52.418;13.668;2023-03-01T07:56:00;37.33;;;25.27;;
12171;SDS011;6149;52.418;13.668;2023-03-01T07:58:28;39.13;;;24.40;;
12171;SDS011;6149;52.418;13.668;2023-03-01T08:00:55;34.87;;;23.90;;
12171;SDS011;6149;52.418;13.668;2023-03-01T08:03:21;39.60;;;25.80;;
12171;SDS011;6149;52.418;13.668;2023-03-01T08:05:50;39.03;;;25.63;;
12171;SDS011;6149;52.418;13.668;2023-03-01T08:08:16;35.03;;;24.13;;
12171;SDS011;6149;52.418;13.668;2023-03-01T08:10:43;34.97;;;23.57;;
12171;SDS011;6149;52.418;13.668;2023-03-01T08:13:09;31.23;;;22.70;;
12171;SDS011;6149;52.418;13.668;2023-03-01T08:15:36;33.07;;;23.47;;
12171;SDS011;6149;52.418;13.668;2023-03-01T08:18:02;31.37;;;21.37;;
12171;SDS011;6149;52.418;13.668;2023-03-01T08:20:29;31.00;;;21.27;;
12171;SDS011;6149;52.418;13.668;2023-03-01T08:22:58;31.67;;;20.77;;
12171;SDS011;6149;52.418;13.668;2023-03-01T08:25:25;26.60;;;19.77;;
12171;SDS011;6149;52.418;13.668;2023-03-01T08:27:51;24.20;;;17.80;;
12171;SDS011;6149;52.418;13.668;2023-03-01T08:30:18;28.50;;;18.83;;
12171;SDS011;6149;52.418;13.668;2023-03-01T08:32:45;25.37;;;19.37;;
12171;SDS011;6149;52.418;13.668;2023-03-01T08:35:12;26.60;;;18.30;;
12171;SDS011;6149;52.418;13.668;2023-03-01T08:37:38;22.43;;;17.07;;
12171;SDS011;6149;52.418;13.668;2023-03-01T08:40:07;18.03;;;12.47;;
12171;SDS011;6149;52.418;13.668;2023-03-01T08:42:36;16.50;;;11.57;;
12171;SDS011;6149;52.418;13.668;2023-03-01T08:45:02;14.50;;;11.30;;
12171;SDS011;6149;52.418;13.668;2023-03-01T08:47:30;14.27;;;10.27;;
12171;SDS011;6149;52.418;13.668;2023-03-01T08:49:58;13.83;;;9.90;;
12171;SDS011;6149;52.418;13.668;2023-03-01T08:52:25;15.33;;;10.83;;
12171;SDS011;6149;52.418;13.668;2023-03-01T08:54:52;12.50;;;9.77;;
12171;SDS011;6149;52.418;13.668;2023-03-01T08:57:20;11.90;;;8.77;;
12171;SDS011;6149;52.418;13.668;2023-03-01T08:59:46;11.03;;;8.23;;
12171;SDS011;6149;52.418;13.668;2023-03-01T09:02:13;11.87;;;7.90;;
12171;SDS011;6149;52.418;13.668;2023-03-01T09:04:43;9.10;;;7.23;;
12171;SDS011;6149;52.418;13.668;2023-03-01T09:07:10;8.47;;;6.53;;
12171;SDS011;6149;52.418;13.668;2023-03-01T09:09:37;9.80;;;6.97;;
12171;SDS011;6149;52.418;13.668;2023-03-01T09:12:04;9.27;;;6.60;;
12171;SDS011;6149;52.418;13.668;2023-03-01T09:14:32;11.93;;;7.83;;
12171;SDS011;6149;52.418;13.668;2023-03-01T09:16:58;9.87;;;7.10;;
12171;SDS011;6149;52.418;13.668;2023-03-01T09:19:27;9.17;;;6.37;;
12171;SDS011;6149;52.418;13.668;2023-03-01T09:21:54;8.93;;;5.97;;
12171;SDS011;6149;52.418;13.668;2023-03-01T09:24:23;9.37;;;5.80;;
12171;SDS011;6149;52.418;13.668;2023-03-01T09:26:53;7.20;;;5.17;;
12171;SDS011;6149;52.418;13.668;2023-03-01T09:29:20;9.67;;;6.23;;
12171;SDS011;6149;52.418;13.668;2023-03-01T09:31:48;6.43;;;5.00;;
12171;SDS011;6149;52.418;13.668;2023-03-01T09:34:15;5.93;;;4.67;;
12171;SDS011;6149;52.418;13.668;2023-03-01T09:36:48;10.07;;;9.07;;
12171;SDS011;6149;52.418;13.668;2023-03-01T09:39:15;6.80;;;5.10;;
12171;SDS011;6149;52.418;13.668;2023-03-01T09:41:44;5.43;;;4.90;;
12171;SDS011;6149;52.418;13.668;2023-03-01T09:44:20;7.97;;;5.70;;
12171;SDS011;6149;52.418;13.668;2023-03-01T09:46:57;6.57;;;4.03;;
12171;SDS011;6149;52.418;13.668;2023-03-01T09:49:25;8.27;;;5.03;;
12171;SDS011;6149;52.418;13.668;2023-03-01T09:51:57;7.43;;;5.43;;
12171;SDS011;6149;52.418;13.668;2023-03-01T09:54:29;6.40;;;4.60;;
12171;SDS011;6149;52.418;13.668;2023-03-01T09:57:07;5.47;;;3.70;;
12171;SDS011;6149;52.418;13.668;2023-03-01T09:59:47;5.23;;;3.70;;
12171;SDS011;6149;52.418;13.668;2023-03-01T10:02:31;6.27;;;3.50;;
12171;SDS011;6149;52.418;13.668;2023-03-01T10:05:15;6.93;;;3.57;;
12171;SDS011;6149;52.418;13.668;2023-03-01T10:08:00;6.27;;;3.47;;
12171;SDS011;6149;52.418;13.668;2023-03-01T10:10:51;5.23;;;3.17;;
12171;SDS011;6149;52.418;13.668;2023-03-01T10:13:19;5.77;;;4.33;;
12171;SDS011;6149;52.418;13.668;2023-03-01T10:15:53;6.10;;;4.43;;
12171;SDS011;6149;52.418;13.668;2023-03-01T10:18:25;5.57;;;5.00;;
12171;SDS011;6149;52.418;13.668;2023-03-01T10:20:55;6.70;;;5.10;;
12171;SDS011;6149;52.418;13.668;2023-03-01T10:23:25;6.90;;;5.80;;
12171;SDS011;6149;52.418;13.668;2023-03-01T10:25:56;10.50;;;8.50;;
12171;SDS011;6149;52.418;13.668;2023-03-01T10:28:48;6.93;;;5.07;;
12171;SDS011;6149;52.418;13.668;2023-03-01T10:31:24;5.40;;;4.30;;
12171;SDS011;6149;52.418;13.668;2023-03-01T10:33:55;5.73;;;4.40;;
12171;SDS011;6149;52.418;13.668;2023-03-01T10:36:24;6.67;;;4.30;;
12171;SDS011;6149;52.418;13.668;2023-03-01T10:38:51;6.33;;;4.97;;
12171;SDS011;6149;52.418;13.668;2023-03-01T10:41:20;6.10;;;5.23;;
12171;SDS011;6149;52.418;13.668;2023-03-01T10:43:50;8.90;;;5.30;;
12171;SDS011;6149;52.418;13.668;2023-03-01T10:46:23;5.97;;;4.90;;
12171;SDS011;6149;52.418;13.668;2023-03-01T10:49:12;8.23;;;4.57;;
12171;SDS011;6149;52.418;13.668;2023-03-01T10:51:42;6.70;;;4.63;;
12171;SDS011;6149;52.418;13.668;2023-03-01T10:54:16;5.30;;;4.37;;
12171;SDS011;6149;52.418;13.668;2023-03-01T10:56:45;6.37;;;4.30;;
12171;SDS011;6149;52.418;13.668;2023-03-01T10:59:19;6.57;;;3.77;;
12171;SDS011;6149;52.418;13.668;2023-03-01T11:02:13;4.50;;;3.57;;
12171;SDS011;6149;52.418;13.668;2023-03-01T11:04:58;6.27;;;3.30;;
12171;SDS011;6149;52.418;13.668;2023-03-01T11:07:27;4.67;;;3.40;;
12171;SDS011;6149;52.418;13.668;2023-03-01T11:09:54;5.43;;;3.47;;
12171;SDS011;6149;52.418;13.668;2023-03-01T11:12:21;5.53;;;3.87;;
12171;SDS011;6149;52.418;13.668;2023-03-01T11:14:48;4.50;;;3.20;;
12171;SDS011;6149;52.418;13.668;2023-03-01T11:17:21;4.57;;;3.43;;
12171;SDS011;6149;52.418;13.668;2023-03-01T11:20:02;7.10;;;3.40;;
12171;SDS011;6149;52.418;13.668;2023-03-01T11:22:45;4.30;;;3.20;;
12171;SDS011;6149;52.418;13.668;2023-03-01T11:25:15;5.20;;;3.60;;
12171;SDS011;6149;52.418;13.668;2023-03-01T11:27:45;5.47;;;3.70;;
12171;SDS011;6149;52.418;13.668;2023-03-01T11:30:15;5.07;;;3.73;;
12171;SDS011;6149;52.418;13.668;2023-03-01T11:32:50;4.93;;;3.20;;
12171;SDS011;6149;52.418;13.668;2023-03-01T11:35:31;5.83;;;3.57;;
12171;SDS011;6149;52.418;13.668;2023-03-01T11:38:04;5.37;;;3.70;;
12171;SDS011;6149;52.418;13.668;2023-03-01T11:40:44;5.07;;;3.77;;
12171;SDS011;6149;52.418;13.668;2023-03-01T11:43:17;7.13;;;5.40;;
12171;SDS011;6149;52.418;13.668;2023-03-01T11:46:18;6.03;;;4.20;;
12171;SDS011;6149;52.418;13.668;2023-03-01T11:49:20;4.60;;;3.93;;
12171;SDS011;6149;52.418;13.668;2023-03-01T11:52:09;6.47;;;4.43;;
12171;SDS011;6149;52.418;13.668;2023-03-01T11:54:52;12.27;;;4.30;;
12171;SDS011;6149;52.418;13.668;2023-03-01T11:57:43;6.23;;;4.50;;
12171;SDS011;6149;52.418;13.668;2023-03-01T12:00:37;4.83;;;3.47;;
12171;SDS011;6149;52.418;13.668;2023-03-01T12:03:23;6.60;;;5.07;;
12171;SDS011;6149;52.418;13.668;2023-03-01T12:05:59;7.03;;;4.13;;
12171;SDS011;6149;52.418;13.668;2023-03-01T12:08:39;3.63;;;3.10;;
12171;SDS011;6149;52.418;13.668;2023-03-01T12:11:12;5.60;;;4.10;;
12171;SDS011;6149;52.418;13.668;2023-03-01T12:20:01;4.43;;;2.90;;
12171;SDS011;6149;52.418;13.668;2023-03-01T12:22:42;5.80;;;3.17;;
12171;SDS011;6149;52.418;13.668;2023-03-01T12:25:29;4.40;;;2.80;;
12171;SDS011;6149;52.418;13.668;2023-03-01T12:28:04;5.43;;;2.77;;
12171;SDS011;6149;52.418;13.668;2023-03-01T12:31:01;3.80;;;2.50;;
12171;SDS011;6149;52.418;13.668;2023-03-01T12:33:44;3.40;;;2.70;;
12171;SDS011;6149;52.418;13.668;2023-03-01T12:36:28;5.67;;;2.47;;
12171;SDS011;6149;52.418;13.668;2023-03-01T12:39:15;3.73;;;2.20;;
12171;SDS011;6149;52.418;13.668;2023-03-01T12:42:04;3.67;;;2.00;;
12171;SDS011;6149;52.418;13.668;2023-03-01T12:44:41;4.27;;;2.57;;
12171;SDS011;6149;52.418;13.668;2023-03-01T12:47:30;3.87;;;2.47;;
12171;SDS011;6149;52.418;13.668;2023-03-01T12:50:26;3.23;;;2.00;;
12171;SDS011;6149;52.418;13.668;2023-03-01T12:53:04;4.33;;;2.20;;
12171;SDS011;6149;52.418;13.668;2023-03-01T12:55:31;3.70;;;2.50;;
12171;SDS011;6149;52.418;13.668;2023-03-01T12:58:05;3.33;;;2.40;;
12171;SDS011;6149;52.418;13.668;2023-03-01T13:00:44;3.40;;;2.00;;
12171;SDS011;6149;52.418;13.668;2023-03-01T13:03:23;3.87;;;2.10;;
12171;SDS011;6149;52.418;13.668;2023-03-01T13:06:02;3.20;;;1.70;;
12171;SDS011;6149;52.418;13.668;2023-03-01T13:08:39;3.10;;;1.90;;
12171;SDS011;6149;52.418;13.668;2023-03-01T13:11:15;3.63;;;2.03;;
12171;SDS011;6149;52.418;13.668;2023-03-01T13:13:47;4.63;;;2.23;;
12171;SDS011;6149;52.418;13.668;2023-03-01T13:16:20;3.33;;;2.20;;
12171;SDS011;6149;52.418;13.668;2023-03-01T13:19:06;4.93;;;2.30;;
12171;SDS011;6149;52.418;13.668;2023-03-01T13:21:36;3.30;;;2.00;;
12171;SDS011;6149;52.418;13.668;2023-03-01T13:24:03;3.30;;;2.20;;
12171;SDS011;6149;52.418;13.668;2023-03-01T13:26:30;3.20;;;2.13;;
12171;SDS011;6149;52.418;13.668;2023-03-01T13:29:45;5.37;;;3.97;;
12171;SDS011;6149;52.418;13.668;2023-03-01T13:32:20;5.47;;;3.03;;
12171;SDS011;6149;52.418;13.668;2023-03-01T13:34:50;5.23;;;3.03;;
12171;SDS011;6149;52.418;13.668;2023-03-01T13:37:27;5.90;;;3.97;;
12171;SDS011;6149;52.418;13.668;2023-03-01T13:39:58;10.70;;;7.97;;
12171;SDS011;6149;52.418;13.668;2023-03-01T13:42:35;5.07;;;3.63;;
12171;SDS011;6149;52.418;13.668;2023-03-01T13:48:04;3.37;;;2.43;;
12171;SDS011;6149;52.418;13.668;2023-03-01T13:50:38;5.63;;;4.10;;
12171;SDS011;6149;52.418;13.668;2023-03-01T13:53:14;4.47;;;3.23;;
12171;SDS011;6149;52.418;13.668;2023-03-01T13:55:44;3.70;;;2.20;;
12171;SDS011;6149;52.418;13.668;2023-03-01T13:58:20;3.17;;;2.17;;
12171;SDS011;6149;52.418;13.668;2023-03-01T14:00:55;5.03;;;2.90;;
12171;SDS011;6149;52.418;13.668;2023-03-01T14:03:24;7.97;;;5.50;;
12171;SDS011;6149;52.418;13.668;2023-03-01T14:06:02;6.60;;;3.47;;
12171;SDS011;6149;52.418;13.668;2023-03-01T14:08:33;3.27;;;2.50;;
12171;SDS011;6149;52.418;13.668;2023-03-01T14:11:20;7.47;;;4.83;;
12171;SDS011;6149;52.418;13.668;2023-03-01T14:20:30;24.70;;;15.43;;
12171;SDS011;6149;52.418;13.668;2023-03-01T14:23:08;4.00;;;2.40;;
12171;SDS011;6149;52.418;13.668;2023-03-01T14:25:39;26.20;;;16.13;;
12171;SDS011;6149;52.418;13.668;2023-03-01T14:28:15;5.73;;;3.63;;
12171;SDS011;6149;52.418;13.668;2023-03-01T14:30:47;3.37;;;2.47;;
12171;SDS011;6149;52.418;13.668;2023-03-01T14:33:19;11.60;;;7.50;;
12171;SDS011;6149;52.418;13.668;2023-03-01T14:35:52;4.83;;;2.73;;
12171;SDS011;6149;52.418;13.668;2023-03-01T14:38:29;17.27;;;8.97;;
12171;SDS011;6149;52.418;13.668;2023-03-01T14:41:01;13.40;;;8.37;;
12171;SDS011;6149;52.418;13.668;2023-03-01T14:43:30;3.27;;;2.63;;
12171;SDS011;6149;52.418;13.668;2023-03-01T14:45:59;4.20;;;2.40;;
12171;SDS011;6149;52.418;13.668;2023-03-01T14:48:26;4.67;;;2.33;;
12171;SDS011;6149;52.418;13.668;2023-03-01T14:50:54;3.33;;;2.03;;
12171;SDS011;6149;52.418;13.668;2023-03-01T14:53:23;4.67;;;2.93;;
12171;SDS011;6149;52.418;13.668;2023-03-01T14:55:53;3.77;;;2.30;;
12171;SDS011;6149;52.418;13.668;2023-03-01T14:58:24;6.67;;;4.00;;
12171;SDS011;6149;52.418;13.668;2023-03-01T15:00:53;4.30;;;3.27;;
12171;SDS011;6149;52.418;13.668;2023-03-01T15:03:27;4.23;;;2.50;;
12171;SDS011;6149;52.418;13.668;2023-03-01T15:06:00;3.87;;;2.47;;
12171;SDS011;6149;52.418;13.668;2023-03-01T15:08:29;5.13;;;2.73;;
12171;SDS011;6149;52.418;13.668;2023-03-01T15:11:01;6.20;;;2.80;;